createdAt,value
2022-10-31T00:00:44.408Z,13.30
2022-10-31T00:04:26.198Z,13.30
2022-10-31T00:08:07.962Z,13.30
2022-10-31T00:11:49.696Z,13.30
2022-10-31T00:15:31.389Z,13.30
2022-10-31T00:19:13.092Z,13.40
2022-10-31T00:22:54.798Z,13.40
2022-10-31T00:26:36.524Z,13.40
2022-10-31T00:30:18.250Z,13.40
2022-10-31T00:34:00.052Z,13.30
2022-10-31T00:37:41.735Z,13.30
2022-10-31T00:41:23.436Z,13.20
2022-10-31T00:45:05.396Z,13.10
2022-10-31T00:48:47.248Z,13.00
2022-10-31T00:52:29.044Z,13.00
2022-10-31T00:56:10.959Z,12.90
2022-10-31T00:59:52.693Z,12.90
2022-10-31T01:03:34.966Z,12.80
2022-10-31T01:07:16.820Z,12.80
2022-10-31T01:11:12.033Z,12.80
2022-10-31T01:14:53.745Z,12.70
2022-10-31T01:18:35.879Z,12.70
2022-10-31T01:22:17.800Z,12.70
2022-10-31T01:26:05.934Z,12.70
2022-10-31T01:29:47.728Z,12.70
2022-10-31T01:33:29.889Z,12.70
2022-10-31T01:37:11.660Z,12.70
2022-10-31T01:40:53.489Z,12.70
2022-10-31T01:44:35.144Z,12.80
2022-10-31T01:48:20.505Z,12.80
2022-10-31T01:52:12.323Z,12.80
2022-10-31T01:55:54.372Z,12.80
2022-10-31T01:59:41.332Z,12.70
2022-10-31T02:03:24.857Z,12.70
2022-10-31T02:07:11.816Z,12.80
2022-10-31T02:11:02.946Z,12.90
2022-10-31T02:14:48.952Z,13.00
2022-10-31T02:18:35.073Z,13.10
2022-10-31T02:23:09.013Z,13.20
2022-10-31T02:27:21.053Z,13.30
2022-10-31T02:31:27.609Z,13.30
2022-10-31T02:35:53.954Z,13.40
2022-10-31T02:39:49.593Z,13.30
2022-10-31T02:43:35.213Z,13.30
2022-10-31T02:47:19.821Z,13.30
2022-10-31T02:51:04.056Z,13.30
2022-10-31T02:54:47.466Z,13.30
2022-10-31T02:58:34.707Z,13.30
2022-10-31T03:02:58.306Z,13.30
2022-10-31T03:06:55.209Z,13.30
2022-10-31T03:10:45.837Z,13.30
2022-10-31T03:15:24.433Z,13.30
2022-10-31T03:19:15.332Z,13.30
2022-10-31T03:22:58.798Z,13.20
2022-10-31T03:26:46.588Z,13.20
2022-10-31T03:30:32.333Z,13.20
2022-10-31T03:34:17.239Z,13.20
2022-10-31T03:38:05.541Z,13.20
2022-10-31T03:42:03.386Z,13.30
2022-10-31T03:45:47.828Z,13.20
2022-10-31T03:49:30.139Z,13.20
2022-10-31T03:53:20.650Z,13.20
2022-10-31T03:57:13.092Z,13.20
2022-10-31T04:00:58.554Z,13.20
2022-10-31T04:04:41.455Z,13.20
2022-10-31T04:08:27.862Z,13.10
2022-10-31T04:12:12.081Z,13.10
2022-10-31T04:15:55.919Z,13.00
2022-10-31T04:19:37.705Z,13.00
2022-10-31T04:23:23.247Z,13.10
2022-10-31T04:27:05.009Z,13.20
2022-10-31T04:30:47.952Z,13.20
2022-10-31T04:34:29.712Z,13.30
2022-10-31T04:38:11.614Z,13.30
2022-10-31T04:41:53.523Z,13.30
2022-10-31T04:45:35.276Z,13.30
2022-10-31T04:49:16.965Z,13.40
2022-10-31T04:52:58.723Z,13.40
2022-10-31T04:56:40.486Z,13.30
2022-10-31T05:00:23.142Z,13.30
2022-10-31T05:04:04.876Z,13.30
2022-10-31T05:07:48.201Z,13.30
2022-10-31T05:11:29.926Z,13.30
2022-10-31T05:15:11.717Z,13.40
2022-10-31T05:18:53.421Z,13.40
2022-10-31T05:22:35.116Z,13.40
2022-10-31T05:26:16.930Z,13.40
2022-10-31T05:33:45.514Z,13.30
2022-10-31T05:37:27.200Z,13.30
2022-10-31T05:41:08.961Z,13.30
2022-10-31T05:44:50.672Z,13.20
2022-10-31T05:48:32.378Z,13.10
2022-10-31T05:52:14.439Z,13.10
2022-10-31T05:55:56.221Z,13.00
2022-10-31T05:59:38.035Z,13.00
2022-10-31T06:03:19.727Z,13.00
2022-10-31T06:07:01.472Z,13.00
2022-10-31T06:10:43.327Z,13.00
2022-10-31T06:14:25.075Z,13.00
2022-10-31T06:18:07.047Z,13.00
2022-10-31T06:21:48.824Z,13.00
2022-10-31T06:25:30.591Z,12.90
2022-10-31T06:29:12.314Z,12.90
2022-10-31T06:32:54.103Z,12.90
2022-10-31T06:36:35.918Z,13.00
2022-10-31T06:40:17.691Z,13.00
2022-10-31T06:44:02.374Z,13.10
2022-10-31T06:48:15.450Z,13.10
2022-10-31T06:51:55.454Z,13.10
2022-10-31T06:55:37.219Z,13.10
2022-10-31T06:59:19.057Z,13.20
2022-10-31T07:03:03.744Z,13.10
2022-10-31T07:06:50.900Z,13.10
2022-10-31T07:10:39.234Z,13.20
2022-10-31T07:14:22.411Z,13.10
2022-10-31T07:18:05.809Z,13.10
2022-10-31T07:21:47.582Z,13.00
2022-10-31T07:25:29.396Z,13.00
2022-10-31T07:29:11.128Z,12.90
2022-10-31T07:32:52.872Z,12.90
2022-10-31T07:36:34.621Z,12.90
2022-10-31T07:40:17.423Z,12.90
2022-10-31T07:43:59.251Z,12.90
2022-10-31T07:47:49.225Z,13.00
2022-10-31T07:51:31.193Z,13.20
2022-10-31T07:55:13.844Z,13.40
2022-10-31T07:58:55.592Z,13.50
2022-10-31T08:02:37.324Z,13.70
2022-10-31T08:06:19.165Z,13.90
2022-10-31T08:10:00.895Z,14.10
2022-10-31T08:13:44.018Z,14.30
2022-10-31T08:17:25.741Z,14.40
2022-10-31T08:21:07.577Z,14.40
2022-10-31T08:24:49.484Z,14.50
2022-10-31T08:28:31.240Z,14.70
2022-10-31T08:32:12.973Z,14.80
2022-10-31T08:35:54.805Z,14.80
2022-10-31T08:39:36.489Z,14.80
2022-10-31T08:43:19.831Z,14.70
2022-10-31T08:47:01.553Z,14.70
2022-10-31T08:50:45.333Z,14.70
2022-10-31T08:54:27.116Z,14.70
2022-10-31T08:58:12.811Z,14.80
2022-10-31T09:01:54.606Z,14.70
2022-10-31T09:05:36.529Z,14.70
2022-10-31T09:09:18.252Z,14.80
2022-10-31T09:13:02.320Z,14.80
2022-10-31T09:16:44.109Z,14.90
2022-10-31T09:20:25.975Z,14.90
2022-10-31T09:24:07.806Z,14.90
2022-10-31T09:27:49.523Z,14.90
2022-10-31T09:31:31.219Z,14.90
2022-10-31T09:38:59.664Z,15.00
2022-10-31T09:42:50.327Z,15.00
2022-10-31T09:46:47.278Z,15.00
2022-10-31T09:50:38.656Z,14.90
2022-10-31T09:54:42.441Z,14.90
2022-10-31T09:58:32.125Z,15.00
2022-10-31T10:02:38.041Z,15.00
2022-10-31T10:06:26.097Z,15.00
2022-10-31T10:10:48.775Z,15.20
2022-10-31T10:14:36.564Z,15.40
2022-10-31T10:18:41.502Z,15.50
2022-10-31T10:22:55.661Z,15.50
2022-10-31T10:26:41.222Z,15.50
2022-10-31T10:30:28.108Z,15.60
2022-10-31T10:34:24.664Z,15.70
2022-10-31T10:38:27.476Z,15.80
2022-10-31T10:42:32.550Z,15.80
2022-10-31T10:46:53.829Z,16.00
2022-10-31T10:50:40.545Z,16.20
2022-10-31T10:54:25.925Z,16.90
2022-10-31T10:58:09.595Z,17.00
2022-10-31T11:01:52.982Z,17.00
2022-10-31T11:05:54.625Z,17.10
2022-10-31T11:09:37.347Z,17.30
2022-10-31T11:13:24.477Z,18.00
2022-10-31T11:17:18.882Z,18.60
2022-10-31T11:21:04.539Z,19.20
2022-10-31T11:24:46.336Z,19.30
2022-10-31T11:28:33.425Z,19.70
2022-10-31T11:32:27.509Z,19.90
2022-10-31T11:36:30.995Z,19.50
2022-10-31T11:40:17.946Z,19.00
2022-10-31T11:44:17.382Z,18.50
2022-10-31T11:48:02.146Z,18.00
2022-10-31T11:51:47.904Z,17.70
2022-10-31T11:55:35.828Z,17.70
2022-10-31T11:59:28.451Z,17.50
2022-10-31T12:03:34.395Z,17.40
2022-10-31T12:07:16.105Z,17.40
2022-10-31T12:11:14.384Z,17.50
2022-10-31T12:15:25.457Z,17.50
2022-10-31T12:19:19.149Z,17.60
2022-10-31T12:23:19.239Z,17.80
2022-10-31T12:27:33.613Z,18.40
2022-10-31T12:31:37.607Z,19.90
2022-10-31T12:35:35.386Z,21.30
2022-10-31T12:39:45.820Z,21.10
2022-10-31T12:43:37.939Z,20.60
2022-10-31T12:47:28.572Z,20.50
2022-10-31T12:51:29.512Z,21.30
2022-10-31T12:55:23.287Z,22.00
2022-10-31T12:59:11.711Z,22.40
2022-10-31T13:03:10.093Z,22.40
2022-10-31T13:06:56.842Z,22.30
2022-10-31T13:10:44.646Z,21.90
2022-10-31T13:14:50.301Z,21.40
2022-10-31T13:18:57.180Z,20.70
2022-10-31T13:22:39.502Z,20.20
2022-10-31T13:26:48.038Z,19.70
2022-10-31T13:30:34.334Z,19.30
2022-10-31T13:34:40.574Z,19.10
2022-10-31T13:38:43.344Z,19.20
2022-10-31T13:42:30.960Z,19.50
2022-10-31T13:46:25.324Z,19.60
2022-10-31T13:50:21.945Z,19.50
2022-10-31T13:54:21.428Z,19.40
2022-10-31T13:58:25.802Z,19.10
2022-10-31T14:02:19.837Z,18.90
2022-10-31T14:06:01.899Z,18.70
2022-10-31T14:10:21.211Z,18.50
2022-10-31T14:14:03.246Z,18.30
2022-10-31T14:17:56.831Z,18.00
2022-10-31T14:21:42.180Z,17.80
2022-10-31T14:25:36.204Z,17.60
2022-10-31T14:29:18.056Z,17.40
2022-10-31T14:33:03.116Z,17.30
2022-10-31T14:37:03.608Z,17.10
2022-10-31T14:40:51.751Z,17.00
2022-10-31T14:44:54.507Z,16.90
2022-10-31T14:48:38.939Z,16.70
2022-10-31T14:52:22.112Z,16.50
2022-10-31T14:56:06.929Z,16.40
2022-10-31T15:00:16.185Z,16.30
2022-10-31T15:04:25.973Z,15.90
2022-10-31T15:08:15.569Z,15.50
2022-10-31T15:12:17.726Z,15.20
2022-10-31T15:16:00.216Z,14.90
2022-10-31T15:19:43.983Z,14.70
2022-10-31T15:23:28.721Z,14.50
2022-10-31T15:27:16.744Z,14.40
2022-10-31T15:31:03.190Z,14.30
2022-10-31T15:34:45.848Z,14.20
2022-10-31T15:38:29.386Z,14.20
2022-10-31T15:42:36.845Z,14.20
2022-10-31T15:46:18.689Z,14.20
2022-10-31T15:50:02.242Z,14.20
2022-10-31T15:53:53.230Z,14.10
2022-10-31T15:57:40.432Z,14.10
2022-10-31T16:01:25.366Z,14.10
2022-10-31T16:05:19.181Z,14.10
2022-10-31T16:09:01.049Z,14.10
2022-10-31T16:12:46.906Z,14.10
2022-10-31T16:16:35.248Z,14.00
2022-10-31T16:20:25.944Z,14.00
2022-10-31T16:24:21.892Z,14.00
2022-10-31T16:31:56.153Z,14.00
2022-10-31T16:35:39.568Z,14.00
2022-10-31T16:39:21.607Z,13.90
2022-10-31T16:43:03.846Z,13.90
2022-10-31T16:46:46.426Z,13.90
2022-10-31T16:50:28.560Z,13.80
2022-10-31T16:54:11.872Z,13.80
2022-10-31T16:57:57.017Z,13.90
2022-10-31T17:01:41.641Z,13.80
2022-10-31T17:05:30.950Z,13.80
2022-10-31T17:09:12.689Z,13.80
2022-10-31T17:12:54.840Z,13.80
2022-10-31T17:16:37.556Z,13.80
2022-10-31T17:20:28.515Z,13.70
2022-10-31T17:24:15.087Z,13.70
2022-10-31T17:27:56.910Z,13.60
2022-10-31T17:31:39.423Z,13.60
2022-10-31T17:35:21.828Z,13.60
2022-10-31T17:39:05.552Z,13.60
2022-10-31T17:42:56.544Z,13.60
2022-10-31T17:46:38.976Z,13.60
2022-10-31T17:50:24.036Z,13.60
2022-10-31T17:54:10.135Z,13.70
2022-10-31T17:57:51.962Z,13.70
2022-10-31T18:01:33.752Z,13.70
2022-10-31T18:05:15.594Z,13.70
2022-10-31T18:08:58.189Z,13.70
2022-10-31T18:12:40.037Z,13.60
2022-10-31T18:16:21.840Z,13.70
2022-10-31T18:20:04.033Z,13.70
2022-10-31T18:23:45.825Z,13.70
2022-10-31T18:27:27.535Z,13.70
2022-10-31T18:31:09.281Z,13.80
2022-10-31T18:34:51.049Z,13.70
2022-10-31T18:38:33.563Z,13.70
2022-10-31T18:42:15.281Z,13.70
2022-10-31T18:46:05.232Z,13.80
2022-10-31T18:49:47.252Z,13.80
2022-10-31T18:53:29.009Z,13.90
2022-10-31T18:57:10.811Z,13.90
2022-10-31T19:00:52.863Z,13.90
2022-10-31T19:04:34.760Z,13.90
2022-10-31T19:08:16.755Z,14.00
2022-10-31T19:11:58.500Z,14.00
2022-10-31T19:15:40.368Z,14.00
2022-10-31T19:19:22.180Z,14.10
2022-10-31T19:23:04.299Z,14.10
2022-10-31T19:26:46.947Z,14.10
2022-10-31T19:30:28.793Z,14.10
2022-10-31T19:34:11.132Z,14.20
2022-10-31T19:37:52.933Z,14.20
2022-10-31T19:41:34.624Z,14.20
2022-10-31T19:45:16.997Z,14.20
2022-10-31T19:49:01.639Z,14.10
2022-10-31T19:52:43.343Z,14.10
2022-10-31T19:56:26.295Z,14.10
2022-10-31T20:00:08.745Z,14.10
2022-10-31T20:03:51.005Z,14.10
2022-10-31T20:07:32.674Z,14.10
2022-10-31T20:11:14.539Z,14.10
2022-10-31T20:14:56.319Z,14.20
2022-10-31T20:18:39.631Z,14.20
2022-10-31T20:22:21.504Z,14.20
2022-10-31T20:26:03.965Z,14.20
2022-10-31T20:29:45.669Z,14.10
2022-10-31T20:33:27.734Z,14.10
2022-10-31T20:37:09.437Z,14.10
2022-10-31T20:40:51.162Z,14.10
2022-10-31T20:44:33.003Z,14.10
2022-10-31T20:48:14.762Z,14.10
2022-10-31T20:51:56.509Z,14.10
2022-10-31T20:55:38.227Z,14.10
2022-10-31T20:59:20.115Z,14.00
2022-10-31T21:03:02.188Z,14.00
2022-10-31T21:06:49.094Z,14.00
2022-10-31T21:10:31.472Z,14.00
2022-10-31T21:14:13.636Z,14.00
2022-10-31T21:17:56.068Z,14.00
2022-10-31T21:21:37.868Z,13.90
2022-10-31T21:25:19.572Z,13.70
2022-10-31T21:29:02.247Z,13.60
2022-10-31T21:32:44.049Z,13.40
2022-10-31T21:36:26.269Z,13.30
2022-10-31T21:40:08.596Z,13.20
2022-10-31T21:43:54.171Z,13.10
2022-10-31T21:47:35.971Z,13.00
2022-10-31T21:51:19.395Z,13.00
2022-10-31T21:55:01.123Z,12.90
2022-10-31T21:58:42.820Z,12.90
2022-10-31T22:02:24.589Z,12.80
2022-10-31T22:06:07.659Z,12.70
2022-10-31T22:09:49.592Z,12.70
2022-10-31T22:13:32.540Z,12.70
2022-10-31T22:17:14.312Z,12.70
2022-10-31T22:21:11.394Z,12.70
2022-10-31T22:24:53.167Z,12.70
2022-10-31T22:28:35.963Z,12.70
2022-10-31T22:32:17.762Z,12.60
2022-10-31T22:36:08.196Z,12.60
2022-10-31T22:39:50.048Z,12.50
2022-10-31T22:43:31.740Z,12.40
2022-10-31T22:47:13.441Z,12.30
2022-10-31T22:50:55.154Z,12.20
2022-10-31T22:54:36.852Z,12.00
2022-10-31T22:58:18.550Z,11.90
2022-10-31T23:02:00.497Z,11.80
2022-10-31T23:05:42.381Z,11.80
2022-10-31T23:09:24.166Z,11.70
2022-10-31T23:13:24.343Z,11.50
2022-10-31T23:17:06.100Z,11.40
2022-10-31T23:20:54.949Z,11.40
2022-10-31T23:24:39.464Z,11.40
2022-10-31T23:28:21.337Z,11.40
2022-10-31T23:32:04.138Z,11.40
2022-10-31T23:35:46.033Z,11.50
2022-10-31T23:39:27.808Z,11.50
2022-10-31T23:43:09.633Z,11.50
2022-10-31T23:46:51.489Z,11.50
2022-10-31T23:50:33.256Z,11.60
2022-10-31T23:54:15.248Z,11.60
2022-10-31T23:57:57.023Z,11.60
